»·PEaware :: N160BZ KBUR-KLAS

N160BZ :: KBUR-KLAS

FLIGHT INFORMATION

Flight Status: Arrived
Operator: Privately registered:
United States
More flights under this callsign
Pilot: Martin C. (20247)
Aircraft: BEECH AIRCRAFT BARON
(BE58)
More flights by this aircraft type
Origin: KBUR Bob Hope-Burbank
United States
Destination: KLAS McCarran Intl
United States
More flights between these airports :: More routes between these airports
Route: +VNY3 DAG CRESO4
File this flight plan on PilotEdge
Remarks: I-5
Altitude:
(Current/Filed)
15,000ft
Speed:
(Current/Filed)
250kts
Departed: 04-Feb-19 04:46 PM
Arrived: 04-Feb-19 06:25 PM
Distance/Time
Traveled:
193nm/1:39
Distance/Time
To Go:
Arrived

Flight Plot

Page will automatically refresh every two minutes.

Flight plan parsing failed; only flown route is shown


Map Options




Map Legend


Flown Route
Filed Route
Departure Airport
Arrival Airport
Navaid (VOR, NDB)
Fix

Horizontal Profiles

Position Reports

Time Latitude Longitude Heading Altitude Ground
Speed
04-Feb-19 16:26 34.196338 -118.367565 358 722ft 0kts
04-Feb-19 16:27 34.196338 -118.367565 358 722ft 0kts
04-Feb-19 16:28 34.196338 -118.367565 358 722ft 0kts
04-Feb-19 16:29 34.196338 -118.367565 358 722ft 0kts
04-Feb-19 16:30 34.196338 -118.367565 358 722ft 0kts
04-Feb-19 16:31 34.196338 -118.367565 358 722ft 0kts
04-Feb-19 16:32 34.196338 -118.367565 358 722ft 0kts
04-Feb-19 16:33 34.196338 -118.367565 358 722ft 0kts
04-Feb-19 16:34 34.196338 -118.367565 358 722ft 0kts
04-Feb-19 16:35 34.196338 -118.367565 358 722ft 0kts
04-Feb-19 16:36 34.196338 -118.367565 358 722ft 0kts
04-Feb-19 16:37 34.196338 -118.367565 358 722ft 0kts
04-Feb-19 16:38 34.196338 -118.367565 358 722ft 0kts
04-Feb-19 16:39 34.196338 -118.367565 358 722ft 0kts
04-Feb-19 16:40 34.196338 -118.367565 358 722ft 0kts
04-Feb-19 16:41 34.196338 -118.367565 358 722ft 0kts
04-Feb-19 16:42 34.196338 -118.367565 358 722ft 0kts
04-Feb-19 16:43 34.196926 -118.367039 266 723ft 7kts
04-Feb-19 16:44 34.197114 -118.369052 334 724ft 0kts
04-Feb-19 16:45 34.197830 -118.359257 93 751ft 114kts
04-Feb-19 16:46 34.183935 -118.329926 199 2224ft 116kts
04-Feb-19 16:47 34.175802 -118.363353 295 3523ft 133kts
04-Feb-19 16:48 34.192721 -118.403691 287 4776ft 134kts
04-Feb-19 16:50 34.207238 -118.444373 284 5992ft 129kts
04-Feb-19 17:01 34.196338 -118.367565 358 722ft 0kts
04-Feb-19 17:02 34.196338 -118.367565 358 722ft 0kts
04-Feb-19 17:03 34.196338 -118.367565 358 722ft 0kts
04-Feb-19 17:04 34.196338 -118.367565 358 722ft 0kts
04-Feb-19 17:05 34.196338 -118.367565 358 722ft 0kts
04-Feb-19 17:06 34.196338 -118.367565 358 722ft 0kts
04-Feb-19 17:07 34.196338 -118.367565 358 722ft 0kts
04-Feb-19 17:08 34.196338 -118.367565 358 722ft 0kts
04-Feb-19 17:08 34.196338 -118.367565 358 722ft 0kts
04-Feb-19 17:09 34.196338 -118.367565 358 722ft 0kts
04-Feb-19 17:11 34.196338 -118.367565 358 722ft 0kts
04-Feb-19 17:12 34.196338 -118.367565 358 722ft 0kts
04-Feb-19 17:12 34.196356 -118.367565 1 722ft 1kts
04-Feb-19 17:13 34.196928 -118.367983 272 723ft 9kts
04-Feb-19 17:14 34.197081 -118.369012 326 724ft 0kts
04-Feb-19 17:16 34.197807 -118.361780 94 723ft 106kts
04-Feb-19 17:16 34.193294 -118.326828 147 1517ft 135kts
04-Feb-19 17:17 34.163722 -118.347420 225 2684ft 135kts
04-Feb-19 17:18 34.141822 -118.382272 266 3797ft 139kts
04-Feb-19 17:19 34.175632 -118.405646 342 4836ft 156kts
04-Feb-19 17:20 34.218457 -118.418288 342 5888ft 157kts
04-Feb-19 17:21 34.261356 -118.421203 30 6859ft 165kts
04-Feb-19 17:22 34.298820 -118.388392 42 7813ft 166kts
04-Feb-19 17:23 34.334962 -118.353181 42 8705ft 167kts
04-Feb-19 17:24 34.371559 -118.317585 42 9548ft 169kts
04-Feb-19 17:25 34.408397 -118.281659 40 10321ft 172kts
04-Feb-19 17:26 34.446173 -118.244829 38 11046ft 175kts
04-Feb-19 17:27 34.484171 -118.207812 37 11728ft 176kts
04-Feb-19 17:28 34.522619 -118.170308 37 12380ft 178kts
04-Feb-19 17:29 34.561413 -118.132385 36 12990ft 180kts
04-Feb-19 17:30 34.603717 -118.090982 37 13041ft 206kts
04-Feb-19 17:31 34.633681 -118.034484 87 13037ft 205kts
04-Feb-19 17:32 34.642132 -117.965402 90 13031ft 207kts
04-Feb-19 17:33 34.649794 -117.895702 90 13026ft 208kts
04-Feb-19 17:34 34.657388 -117.825813 90 13022ft 208kts
04-Feb-19 17:35 34.666370 -117.756099 80 13024ft 212kts
04-Feb-19 17:36 34.683761 -117.687128 78 13025ft 213kts
04-Feb-19 17:37 34.701374 -117.618392 78 13029ft 213kts
04-Feb-19 17:38 34.719022 -117.549365 78 13031ft 213kts
04-Feb-19 17:39 34.736573 -117.480541 78 13031ft 213kts
04-Feb-19 17:40 34.754218 -117.411173 78 13031ft 214kts
04-Feb-19 17:41 34.771808 -117.341851 79 13028ft 214kts
04-Feb-19 17:42 34.789197 -117.273124 79 13024ft 212kts
04-Feb-19 17:43 34.806585 -117.204209 79 13022ft 212kts
04-Feb-19 17:44 34.823970 -117.135119 79 13018ft 212kts
04-Feb-19 17:45 34.841182 -117.066413 78 13014ft 213kts
04-Feb-19 17:46 34.858651 -116.996600 76 13012ft 215kts
04-Feb-19 17:47 34.875975 -116.927164 75 13075ft 216kts
04-Feb-19 17:48 34.893611 -116.856444 74 13076ft 219kts
04-Feb-19 17:49 34.911342 -116.785171 75 13076ft 220kts
04-Feb-19 17:50 34.928329 -116.716569 75 13077ft 220kts
04-Feb-19 17:51 34.946033 -116.644862 76 13078ft 221kts
04-Feb-19 17:52 34.964642 -116.574516 65 13080ft 222kts
04-Feb-19 17:53 34.993845 -116.507659 62 13083ft 223kts
04-Feb-19 17:54 35.023610 -116.440664 63 13087ft 224kts
04-Feb-19 17:55 35.053334 -116.373582 64 13091ft 224kts
04-Feb-19 17:56 35.082522 -116.307608 65 13083ft 223kts
04-Feb-19 17:57 35.112207 -116.240388 65 13076ft 222kts
04-Feb-19 17:58 35.141403 -116.174164 65 13112ft 219kts
04-Feb-19 17:59 35.170331 -116.108403 65 13124ft 220kts
04-Feb-19 18:00 35.199381 -116.042235 65 13124ft 221kts
04-Feb-19 18:01 35.228597 -115.975567 65 13125ft 221kts
04-Feb-19 18:02 35.257591 -115.909279 65 13126ft 221kts
04-Feb-19 18:03 35.286662 -115.842678 65 13124ft 222kts
04-Feb-19 18:04 35.318158 -115.777546 49 13123ft 223kts
04-Feb-19 18:05 35.359982 -115.721368 46 13047ft 227kts
04-Feb-19 18:06 35.403985 -115.662657 46 12625ft 237kts
04-Feb-19 18:07 35.448855 -115.602683 46 12230ft 238kts
04-Feb-19 18:08 35.492653 -115.544059 46 12153ft 227kts
04-Feb-19 18:09 35.534937 -115.487385 46 12155ft 224kts
04-Feb-19 18:10 35.577010 -115.430913 46 12155ft 223kts
04-Feb-19 18:11 35.618671 -115.374896 46 12156ft 222kts
04-Feb-19 18:12 35.660251 -115.318919 47 12150ft 222kts
04-Feb-19 18:13 35.704046 -115.265991 23 12036ft 223kts
04-Feb-19 18:14 35.762058 -115.230083 21 11266ft 241kts
04-Feb-19 18:15 35.822853 -115.193255 22 10306ft 244kts
04-Feb-19 18:16 35.883569 -115.157261 22 9396ft 240kts
04-Feb-19 18:17 35.946379 -115.134235 10 8512ft 233kts
04-Feb-19 18:18 36.009501 -115.113403 11 7483ft 234kts
04-Feb-19 18:19 36.071344 -115.094332 10 6387ft 215kts
04-Feb-19 18:20 36.126092 -115.079141 10 4905ft 192kts
04-Feb-19 18:21 36.162728 -115.114656 292 3608ft 183kts
04-Feb-19 18:22 36.137545 -115.137669 194 2605ft 117kts
04-Feb-19 18:23 36.111252 -115.149883 203 2287ft 95kts
04-Feb-19 18:24 36.092091 -115.160813 203 2112ft 36kts
04-Feb-19 18:25 36.089327 -115.163766 239 2130ft 14kts
04-Feb-19 18:26 36.086031 -115.166747 258 2148ft 12kts

Navigation Log

Ident Type
Flight plan parsing failed, navigation log unavailable